ROMMA est une association bénévole à but non lucratif. Votre soutien est indispensable : ADHERER à ROMMA ou FAIRE un DON

Crest - (26, Drôme)

Vallée de la Drôme (315 m)   Longitude: 5°2' E   Latitude: 44°44' N Station partenaire n°62
 

Détail journalier du     <<     >>

Température Precipitation Humidité Pression Vent Dir Rafale Dir. rafale Ensol.
Heure (°C) (mm) (%) (hPa) (km/h) (km/h) (min)
01:00 4.609510242SSE8SSE0
02:00 4.209510242SSE10SE0
03:00 3.909610243SSE6SSE0
04:00 3.609610242SSE6SSE0
05:00 3.409610242SSO10SSO0
06:00 2.909610252SSO10SSO0
07:00 2.309610241SE10SSE0
08:00 2.10.39610241---8SE0
09:00 2.409710246SE31SSO0
10:00 4.2098102519SSO35SO29
11:00 6.3088102517SSO32S60
12:00 8.1078102520SO35NNO60
13:00 10.2066102419SO40NNE60
14:00 10.4063102321NNE48NE55
15:00 10.3063102320NNE40NE58
16:00 9.8066102320SO44NNE59
17:00 8.7070102318SO37SSO34
18:00 7.5073102312SO26SO0
19:00 7.3073102313NE29SSO0
20:00 7.7070102313NNE32SO0
21:00 6.6074102214SO37N0
22:00 5.108210229SSO26SO0
23:00 4.9084102212SSO26SO0
minuit 4.308510228SSO23SSO0

Graphique du 25-12-2019

 

Serveur OMMA